Terminal Aerodrome Forecast
Issued by NWS

Home | Current Version | Previous Version | Text Only | Print | Product List | Glossary On
Versions: 1 2 3 4 5 6 7 8 9 10 11 12 13 14 15 16 17 18 19
000
FTUS43 KILX 260500
TAFDEC
TAF
KDEC 260521Z 2606/2706 34013G20KT P6SM BKN017
     FM260900 32004KT P6SM SCT015 BKN080
     FM261700 25007KT P6SM BKN025
     FM261900 18008KT P6SM OVC025=

USA.gov is the U.S. government's official web portal to all federal, state and local government web resources and services.